Time;durP1;ratioP1;P1;durP2;ratioP2;P2;SDS_P1;SDS_P2;PMS_P1;PMS_P2;Temp;Humidity;BMP_temperature;BMP_pressure;BME280_temperature;BME280_humidity;BME280_pressure;Samples;Min_cycle;Max_cycle;Signal;HPM_P1;HPM_P2
2021/08/18 00:01:41;;;;;;;0.40;0.20;;;14.90;99.90;;;;;;5113044;28;20435;-71
2021/08/18 00:04:07;;;;;;;0.40;0.20;;;14.70;99.90;;;;;;5095766;28;20888;-71
2021/08/18 00:06:33;;;;;;;0.40;0.20;;;14.70;99.90;;;;;;5113416;28;20844;-71
2021/08/18 00:08:59;;;;;;;0.40;0.20;;;14.70;99.90;;;;;;5113592;28;20424;-71
2021/08/18 00:11:24;;;;;;;0.40;0.20;;;14.70;99.90;;;;;;5114236;28;20533;-71
2021/08/18 00:13:50;;;;;;;0.40;0.20;;;14.70;99.90;;;;;;5112838;28;20376;-71
2021/08/18 00:16:17;;;;;;;0.40;0.20;;;14.60;99.90;;;;;;5113384;28;20887;-71
2021/08/18 00:18:42;;;;;;;0.40;0.20;;;14.80;99.90;;;;;;5113041;28;20381;-71
2021/08/18 00:21:08;;;;;;;0.40;0.28;;;14.70;99.90;;;;;;5112773;28;20403;-71
2021/08/18 00:23:34;;;;;;;0.40;0.20;;;14.70;99.90;;;;;;5112440;28;20420;-72
2021/08/18 00:26:00;;;;;;;0.40;0.20;;;14.80;99.90;;;;;;5113486;28;20412;-70
2021/08/18 00:28:25;;;;;;;0.40;0.20;;;14.90;99.90;;;;;;5113487;28;20883;-71
2021/08/18 00:30:51;;;;;;;0.40;0.20;;;14.70;99.90;;;;;;5113237;28;20380;-71
2021/08/18 00:33:17;;;;;;;0.40;0.30;;;14.80;99.90;;;;;;5113437;28;20384;-71
2021/08/18 00:35:42;;;;;;;0.40;0.20;;;14.90;99.90;;;;;;5113205;28;20420;-71
2021/08/18 00:38:08;;;;;;;0.40;0.20;;;14.90;99.90;;;;;;5113525;28;20373;-71
2021/08/18 00:40:34;;;;;;;0.40;0.20;;;14.90;99.90;;;;;;5112669;28;20383;-71
2021/08/18 00:42:59;;;;;;;0.40;0.20;;;14.90;99.90;;;;;;5112946;28;20411;-71
2021/08/18 00:45:25;;;;;;;0.40;0.20;;;14.80;99.90;;;;;;5112896;28;20376;-71
2021/08/18 00:47:53;;;;;;;0.40;0.20;;;14.90;99.90;;;;;;5112523;28;20373;-71
2021/08/18 00:50:22;;;;;;;0.40;0.20;;;14.70;99.90;;;;;;5113114;28;20373;-71
2021/08/18 00:52:47;;;;;;;0.40;0.30;;;14.70;99.90;;;;;;5112690;28;20445;-71
2021/08/18 00:55:16;;;;;;;0.40;0.40;;;14.60;99.90;;;;;;5113143;28;20475;-71
2021/08/18 00:57:41;;;;;;;0.40;0.30;;;14.70;99.90;;;;;;5112467;28;20373;-70
2021/08/18 01:00:09;;;;;;;0.40;0.20;;;14.70;99.90;;;;;;5112688;28;20414;-71
2021/08/18 01:02:36;;;;;;;0.40;0.20;;;14.70;99.90;;;;;;5111503;28;20400;-71
2021/08/18 01:05:15;;;;;;;0.40;0.30;;;14.70;99.90;;;;;;5112391;28;20730;-71
2021/08/18 01:07:41;;;;;;;0.40;0.30;;;14.70;99.90;;;;;;5111961;28;20372;-71
2021/08/18 01:10:10;;;;;;;0.40;0.30;;;14.70;99.90;;;;;;5112377;28;20401;-71
2021/08/18 01:12:37;;;;;;;0.40;0.20;;;14.70;99.90;;;;;;5111950;28;20372;-71
2021/08/18 01:15:08;;;;;;;0.40;0.30;;;14.70;99.90;;;;;;5112664;28;20738;-71
2021/08/18 01:17:38;;;;;;;0.40;0.30;;;14.70;99.90;;;;;;5111485;28;20788;-71
2021/08/18 01:20:05;;;;;;;0.40;0.30;;;14.60;99.90;;;;;;5112556;28;20429;-71
2021/08/18 01:22:32;;;;;;;0.40;0.23;;;14.70;99.90;;;;;;5112244;28;20455;-73
2021/08/18 01:24:57;;;;;;;0.40;0.30;;;14.70;99.90;;;;;;5112336;28;20404;-71
2021/08/18 01:27:23;;;;;;;0.40;0.20;;;14.70;99.90;;;;;;5112728;28;20793;-70
2021/08/18 01:29:49;;;;;;;0.40;0.30;;;14.70;99.90;;;;;;5111964;28;20388;-71
2021/08/18 01:32:15;;;;;;;0.40;0.30;;;14.80;99.90;;;;;;5111820;28;20372;-70
2021/08/18 01:34:40;;;;;;;0.40;0.20;;;14.80;99.90;;;;;;5093401;28;20856;-71
2021/08/18 01:37:06;;;;;;;0.40;0.20;;;14.60;99.90;;;;;;5112685;28;20907;-70
2021/08/18 01:39:32;;;;;;;0.40;0.20;;;14.80;99.90;;;;;;5111574;28;20369;-72
2021/08/18 01:41:58;;;;;;;0.40;0.20;;;14.80;99.90;;;;;;5112350;28;20444;-71
2021/08/18 01:44:23;;;;;;;0.40;0.20;;;14.70;99.90;;;;;;5112076;28;20415;-70
2021/08/18 01:46:49;;;;;;;0.40;0.20;;;14.70;99.90;;;;;;5111219;28;20737;-71
2021/08/18 01:49:15;;;;;;;0.40;0.30;;;14.70;99.90;;;;;;5111789;28;20562;-71
2021/08/18 01:51:40;;;;;;;0.40;0.20;;;14.90;99.90;;;;;;5111317;28;20369;-71
2021/08/18 01:54:06;;;;;;;0.40;0.20;;;14.90;99.90;;;;;;5112234;28;20466;-71
2021/08/18 01:56:32;;;;;;;0.40;0.20;;;14.70;99.90;;;;;;5111948;28;20376;-71
2021/08/18 01:58:58;;;;;;;0.40;0.20;;;14.70;99.90;;;;;;5111900;28;20375;-70
2021/08/18 02:01:24;;;;;;;0.40;0.30;;;14.60;99.90;;;;;;5111331;28;20400;-71
2021/08/18 02:03:52;;;;;;;0.40;0.20;;;14.60;99.90;;;;;;5111094;28;20392;-71
2021/08/18 02:06:18;;;;;;;0.40;0.30;;;14.60;99.90;;;;;;5111695;28;20373;-71
2021/08/18 02:08:44;;;;;;;0.40;0.20;;;14.70;99.90;;;;;;5111103;28;20376;-71
2021/08/18 02:11:10;;;;;;;0.40;0.20;;;14.70;99.90;;;;;;5111665;28;20897;-71
2021/08/18 02:13:37;;;;;;;0.70;0.60;;;14.70;99.90;;;;;;5092944;28;20396;-71
2021/08/18 02:16:04;;;;;;;0.40;0.30;;;14.70;99.90;;;;;;5111555;28;20415;-70
2021/08/18 02:18:30;;;;;;;0.40;0.20;;;14.60;99.90;;;;;;5111625;28;20425;-71
2021/08/18 02:20:56;;;;;;;0.40;0.20;;;14.80;99.90;;;;;;5111001;28;20459;-71
2021/08/18 02:23:22;;;;;;;0.40;0.30;;;14.70;99.90;;;;;;5111590;28;20880;-71
2021/08/18 02:25:49;;;;;;;0.40;0.30;;;14.60;99.90;;;;;;5111099;28;20434;-70
2021/08/18 02:28:15;;;;;;;0.40;0.20;;;14.50;99.90;;;;;;5111577;28;20415;-72
2021/08/18 02:30:41;;;;;;;0.40;0.30;;;14.60;99.90;;;;;;5110875;28;20404;-72
2021/08/18 02:33:08;;;;;;;0.40;0.30;;;14.60;99.90;;;;;;5111232;28;20501;-72
2021/08/18 02:35:34;;;;;;;0.40;0.20;;;14.60;99.90;;;;;;5111453;28;20441;-72
2021/08/18 02:38:02;;;;;;;0.40;0.20;;;14.60;99.90;;;;;;5111121;28;20453;-71
2021/08/18 02:40:28;;;;;;;0.40;0.20;;;14.70;99.90;;;;;;5111331;28;20384;-71
2021/08/18 02:42:56;;;;;;;0.40;0.20;;;14.50;99.90;;;;;;5111143;28;20779;-72
2021/08/18 02:45:23;;;;;;;0.40;0.30;;;14.60;99.90;;;;;;5115550;28;20419;-71
2021/08/18 02:47:48;;;;;;;0.40;0.20;;;14.70;99.90;;;;;;5096703;28;20729;-72
2021/08/18 02:50:17;;;;;;;0.40;0.20;;;14.50;99.90;;;;;;5097302;28;20368;-71
2021/08/18 02:52:43;;;;;;;0.40;0.30;;;14.60;99.90;;;;;;5115204;28;20396;-72
2021/08/18 02:55:09;;;;;;;0.40;0.30;;;14.70;99.90;;;;;;5115474;28;20471;-72
2021/08/18 02:57:35;;;;;;;0.40;0.20;;;14.70;99.90;;;;;;5115449;28;20821;-71
2021/08/18 03:00:00;;;;;;;0.40;0.30;;;14.70;99.90;;;;;;5114696;28;20513;-71
2021/08/18 03:02:26;;;;;;;0.40;0.20;;;14.80;99.90;;;;;;5115547;28;20400;-71
2021/08/18 03:04:52;;;;;;;0.40;0.20;;;15.10;99.90;;;;;;5114570;28;20431;-71
2021/08/18 03:07:18;;;;;;;0.40;0.30;;;15.50;99.90;;;;;;5115421;28;20930;-69
2021/08/18 03:09:43;;;;;;;0.40;0.20;;;15.60;99.90;;;;;;5114605;28;20836;-72
2021/08/18 03:12:09;;;;;;;0.40;0.20;;;15.70;99.90;;;;;;5115131;28;20438;-72
2021/08/18 03:14:35;;;;;;;0.40;0.20;;;15.70;99.90;;;;;;5097048;28;20380;-71
2021/08/18 03:17:01;;;;;;;0.40;0.28;;;15.80;99.90;;;;;;5114190;28;20376;-71
2021/08/18 03:19:27;;;;;;;0.40;0.30;;;15.90;99.90;;;;;;5115193;28;20455;-69
2021/08/18 03:21:53;;;;;;;0.40;0.20;;;15.90;99.90;;;;;;5114164;28;20422;-72
2021/08/18 03:24:18;;;;;;;0.40;0.20;;;15.70;99.90;;;;;;5114970;28;20403;-71
2021/08/18 03:26:44;;;;;;;0.40;0.30;;;15.60;99.90;;;;;;5095806;28;20523;-70
2021/08/18 03:29:10;;;;;;;0.40;0.20;;;15.80;99.90;;;;;;5114617;28;20388;-70
2021/08/18 03:31:36;;;;;;;0.40;0.30;;;15.80;99.90;;;;;;5114631;28;20880;-69
2021/08/18 03:34:02;;;;;;;0.40;0.20;;;15.70;99.90;;;;;;5113904;28;20376;-71
2021/08/18 03:36:28;;;;;;;0.40;0.30;;;15.80;99.90;;;;;;5114490;28;20860;-69
2021/08/18 03:38:54;;;;;;;0.40;0.20;;;15.80;99.90;;;;;;5113909;28;20376;-69
2021/08/18 03:41:19;;;;;;;0.40;0.20;;;15.60;99.90;;;;;;5114266;28;20380;-69
2021/08/18 03:43:45;;;;;;;0.40;0.20;;;15.60;99.90;;;;;;5114010;28;20396;-69
2021/08/18 03:46:11;;;;;;;0.40;0.30;;;15.80;99.90;;;;;;5114599;28;20377;-69
2021/08/18 03:48:36;;;;;;;0.40;0.20;;;15.70;99.90;;;;;;5114156;28;20383;-70
2021/08/18 03:51:03;;;;;;;0.40;0.20;;;15.60;99.90;;;;;;5113786;28;20369;-69
2021/08/18 03:53:28;;;;;;;0.40;0.20;;;15.40;99.90;;;;;;5114646;28;20428;-69
2021/08/18 03:55:54;;;;;;;0.40;0.30;;;15.50;99.90;;;;;;5095483;28;20883;-69
2021/08/18 03:58:20;;;;;;;0.40;0.30;;;15.80;99.90;;;;;;5114469;28;20381;-71
2021/08/18 04:00:45;;;;;;;0.40;0.30;;;15.80;99.90;;;;;;5091802;28;20894;-70
2021/08/18 04:03:11;;;;;;;0.40;0.30;;;15.90;99.90;;;;;;5094231;28;20370;-69
2021/08/18 04:05:37;;;;;;;0.40;0.40;;;15.90;99.90;;;;;;5093772;28;20423;-71
2021/08/18 04:08:06;;;;;;;0.40;0.30;;;15.90;99.90;;;;;;5093410;28;20374;-69
2021/08/18 04:10:32;;;;;;;0.40;0.30;;;15.90;99.90;;;;;;5094062;28;20377;-72
2021/08/18 04:12:59;;;;;;;0.40;0.20;;;16.10;99.90;;;;;;5091772;28;20366;-70
2021/08/18 04:15:43;;;;;;;0.40;0.20;;;16.10;99.90;;;;;;5093865;28;20419;-70
2021/08/18 04:18:12;;;;;;;0.40;0.30;;;16.10;99.90;;;;;;5093999;28;20393;-70
2021/08/18 04:20:38;;;;;;;0.40;0.30;;;16.10;99.90;;;;;;5093872;28;20406;-70
2021/08/18 04:23:04;;;;;;;0.40;0.20;;;16.00;99.90;;;;;;5092982;28;20864;-70
2021/08/18 04:25:31;;;;;;;0.40;0.30;;;16.10;99.90;;;;;;5093387;28;20381;-70
2021/08/18 04:27:56;;;;;;;0.40;0.20;;;16.10;99.90;;;;;;5092970;28;20381;-71
2021/08/18 04:30:23;;;;;;;0.40;0.30;;;16.00;99.90;;;;;;5092339;28;20378;-70
2021/08/18 04:32:49;;;;;;;0.40;0.30;;;15.90;99.90;;;;;;5092962;28;20715;-70
2021/08/18 04:35:16;;;;;;;0.40;0.30;;;15.90;99.90;;;;;;5093525;28;20377;-69
2021/08/18 04:37:42;;;;;;;0.40;0.20;;;15.90;99.90;;;;;;5093032;28;20378;-71
2021/08/18 04:40:13;;;;;;;0.40;0.20;;;15.90;99.90;;;;;;5093506;28;20450;-71
2021/08/18 04:42:46;;;;;;;0.40;0.20;;;15.90;99.90;;;;;;5093385;28;20394;-70
2021/08/18 04:45:14;;;;;;;0.40;0.30;;;15.90;99.90;;;;;;5092901;28;20939;-71
2021/08/18 04:47:40;;;;;;;0.40;0.30;;;15.90;99.90;;;;;;5092801;28;20374;-69
2021/08/18 04:50:08;;;;;;;0.40;0.30;;;16.00;99.90;;;;;;5091994;28;20469;-71
2021/08/18 04:52:34;;;;;;;0.40;0.20;;;16.00;99.90;;;;;;5092559;28;20704;-70
2021/08/18 04:55:00;;;;;;;0.40;0.30;;;16.10;99.90;;;;;;5092527;28;20440;-71
2021/08/18 04:57:25;;;;;;;0.40;0.30;;;16.10;99.90;;;;;;5090951;28;20383;-71
2021/08/18 04:59:51;;;;;;;0.40;0.20;;;16.00;99.90;;;;;;5091690;28;20388;-70
2021/08/18 05:02:16;;;;;;;0.50;0.40;;;16.00;99.90;;;;;;5108410;28;20418;-70
2021/08/18 05:04:42;;;;;;;0.40;0.20;;;16.10;99.90;;;;;;5112874;28;20407;-71
2021/08/18 05:07:08;;;;;;;0.40;0.30;;;16.10;99.90;;;;;;5111272;28;20371;-70
2021/08/18 05:09:34;;;;;;;0.40;0.20;;;16.00;99.90;;;;;;5112963;28;20396;-70
2021/08/18 05:11:59;;;;;;;0.40;0.30;;;16.00;99.90;;;;;;5112448;28;20399;-70
2021/08/18 05:14:25;;;;;;;0.40;0.30;;;16.00;99.90;;;;;;5113228;28;20372;-70
2021/08/18 05:16:51;;;;;;;0.40;0.30;;;16.10;99.90;;;;;;5112297;28;20388;-70
2021/08/18 05:19:17;;;;;;;0.40;0.20;;;16.00;99.90;;;;;;5113125;28;20373;-71
2021/08/18 05:21:43;;;;;;;0.40;0.20;;;16.00;99.90;;;;;;5112599;28;20724;-71
2021/08/18 05:24:09;;;;;;;0.40;0.30;;;16.00;99.90;;;;;;5112312;28;20858;-70
2021/08/18 05:26:34;;;;;;;0.40;0.30;;;15.60;99.90;;;;;;5112569;28;20380;-70
2021/08/18 05:29:00;;;;;;;0.40;0.30;;;15.70;99.90;;;;;;5112014;28;20375;-70
2021/08/18 05:31:26;;;;;;;0.40;0.30;;;15.50;99.90;;;;;;5112682;28;20456;-70
2021/08/18 05:33:52;;;;;;;0.40;0.20;;;15.60;99.90;;;;;;5111960;28;20377;-70
2021/08/18 05:36:17;;;;;;;0.40;0.30;;;15.70;99.90;;;;;;5112736;28;20398;-70
2021/08/18 05:38:43;;;;;;;0.40;0.30;;;15.60;99.90;;;;;;5112255;28;20368;-70
2021/08/18 05:41:10;;;;;;;0.40;0.30;;;15.60;99.90;;;;;;5093712;28;20957;-70
2021/08/18 05:43:36;;;;;;;0.40;0.20;;;15.30;99.90;;;;;;5112128;28;20892;-70
2021/08/18 05:46:02;;;;;;;0.40;0.20;;;15.30;99.90;;;;;;5111900;28;20383;-70
2021/08/18 05:48:27;;;;;;;0.40;0.30;;;15.30;99.90;;;;;;5112328;28;20459;-70
2021/08/18 05:50:53;;;;;;;0.40;0.30;;;15.30;99.90;;;;;;5111783;28;20376;-70
2021/08/18 05:53:18;;;;;;;0.40;0.20;;;15.20;99.90;;;;;;5111933;28;20400;-70
2021/08/18 05:55:48;;;;;;;0.40;0.20;;;15.20;99.90;;;;;;5112267;28;20415;-70
2021/08/18 05:58:15;;;;;;;0.40;0.20;;;15.20;99.90;;;;;;5112492;28;20385;-70
2021/08/18 06:00:41;;;;;;;0.40;0.20;;;15.30;99.90;;;;;;5111819;28;20900;-71
2021/08/18 06:03:07;;;;;;;0.40;0.20;;;15.40;99.90;;;;;;5111519;28;20610;-70
2021/08/18 06:05:33;;;;;;;0.40;0.20;;;15.30;99.90;;;;;;5112236;28;20369;-70
2021/08/18 06:07:58;;;;;;;0.40;0.30;;;15.20;99.90;;;;;;5111418;28;20468;-71
2021/08/18 06:10:24;;;;;;;0.40;0.30;;;15.20;99.90;;;;;;5111768;28;20737;-71
2021/08/18 06:12:50;;;;;;;0.40;0.30;;;15.20;99.90;;;;;;5111410;28;20376;-71
2021/08/18 06:15:16;;;;;;;0.40;0.30;;;15.20;99.90;;;;;;5111722;28;20843;-70
2021/08/18 06:17:42;;;;;;;0.40;0.20;;;15.20;99.90;;;;;;5111001;27;20577;-73
2021/08/18 06:20:08;;;;;;;0.40;0.20;;;15.30;99.90;;;;;;5094852;27;20386;-71
2021/08/18 06:22:34;;;;;;;0.40;0.30;;;15.40;99.90;;;;;;5108965;27;20426;-71
2021/08/18 06:25:03;;;;;;;0.40;0.20;;;15.30;99.90;;;;;;5107928;27;20821;-71
2021/08/18 06:27:30;;;;;;;0.40;0.30;;;15.30;99.90;;;;;;5107751;27;20415;-71
2021/08/18 06:29:56;;;;;;;0.40;0.20;;;15.40;99.90;;;;;;5107560;27;20459;-72
2021/08/18 06:32:22;;;;;;;0.40;0.30;;;15.50;99.90;;;;;;5108568;27;20383;-71
2021/08/18 06:34:48;;;;;;;0.40;0.30;;;15.60;99.90;;;;;;5108777;27;20767;-71
2021/08/18 06:37:14;;;;;;;0.40;0.20;;;15.70;99.90;;;;;;5089608;28;20390;-71
2021/08/18 06:39:40;;;;;;;0.40;0.20;;;15.70;99.90;;;;;;5107843;28;20439;-72
2021/08/18 06:42:07;;;;;;;0.40;0.30;;;15.60;99.90;;;;;;5107045;28;20406;-71
2021/08/18 06:44:33;;;;;;;0.40;0.20;;;15.90;99.90;;;;;;5108528;28;20407;-72
2021/08/18 06:46:59;;;;;;;0.40;0.30;;;15.90;99.90;;;;;;5106861;28;20798;-71
2021/08/18 06:49:25;;;;;;;0.40;0.20;;;16.00;99.90;;;;;;5105786;28;20394;-72
2021/08/18 06:51:50;;;;;;;0.40;0.30;;;16.10;99.90;;;;;;5089772;28;20505;-72
2021/08/18 06:54:16;;;;;;;0.40;0.20;;;16.10;99.90;;;;;;5108663;28;20383;-70
2021/08/18 06:56:42;;;;;;;0.40;0.20;;;16.10;99.90;;;;;;5108943;28;20377;-73
2021/08/18 06:59:07;;;;;;;0.40;0.20;;;16.20;99.90;;;;;;5106328;28;20940;-71
2021/08/18 07:01:33;;;;;;;0.40;0.28;;;16.10;99.90;;;;;;5107764;28;20406;-71
2021/08/18 07:03:59;;;;;;;0.40;0.20;;;16.20;99.90;;;;;;5107273;28;20407;-71
2021/08/18 07:06:24;;;;;;;0.40;0.20;;;16.20;99.90;;;;;;5107176;28;20507;-71
2021/08/18 07:08:50;;;;;;;0.40;0.30;;;16.10;99.90;;;;;;5107641;28;20474;-73
2021/08/18 07:11:16;;;;;;;0.40;0.30;;;16.10;99.90;;;;;;5106984;28;20383;-71
2021/08/18 07:13:41;;;;;;;0.40;0.30;;;16.20;99.90;;;;;;5108097;28;20379;-73
2021/08/18 07:16:08;;;;;;;0.40;0.30;;;16.00;99.90;;;;;;5088093;28;20743;-72
2021/08/18 07:18:34;;;;;;;0.40;0.30;;;15.80;99.90;;;;;;5106858;28;20433;-73
2021/08/18 07:20:59;;;;;;;0.40;0.20;;;15.90;99.90;;;;;;5108025;28;20839;-74
2021/08/18 07:23:25;;;;;;;0.40;0.20;;;16.00;99.90;;;;;;5107846;28;20824;-72
2021/08/18 07:25:51;;;;;;;0.40;0.20;;;16.10;99.90;;;;;;5108377;28;20386;-72
2021/08/18 07:28:17;;;;;;;0.40;0.20;;;16.10;99.90;;;;;;5105977;28;20407;-73
2021/08/18 07:30:43;;;;;;;0.40;0.20;;;16.30;99.90;;;;;;5112116;27;20385;-71
2021/08/18 07:33:09;;;;;;;0.40;0.20;;;16.10;99.90;;;;;;5111114;27;20538;-74
2021/08/18 07:35:35;;;;;;;0.40;0.30;;;16.10;99.90;;;;;;5112480;27;20426;-70
2021/08/18 07:38:00;;;;;;;0.40;0.30;;;16.00;99.90;;;;;;5109778;27;20370;-71
2021/08/18 07:40:26;;;;;;;0.40;0.30;;;16.00;99.90;;;;;;5112404;27;20873;-70
2021/08/18 07:42:52;;;;;;;0.40;0.20;;;16.10;99.90;;;;;;5110442;27;20421;-70
2021/08/18 07:45:19;;;;;;;0.40;0.20;;;16.40;99.90;;;;;;5111951;27;20465;-71
2021/08/18 07:47:45;;;;;;;0.40;0.20;;;16.50;99.90;;;;;;5110835;27;20391;-71
2021/08/18 07:50:11;;;;;;;0.40;0.20;;;16.60;99.90;;;;;;5112459;27;20386;-71
2021/08/18 07:52:37;;;;;;;0.40;0.30;;;16.70;99.90;;;;;;5112673;27;20418;-70
2021/08/18 07:55:05;;;;;;;0.40;0.22;;;16.50;99.90;;;;;;5111301;27;20404;-71
2021/08/18 07:57:34;;;;;;;0.40;0.20;;;16.60;99.90;;;;;;5110838;27;20466;-72
2021/08/18 08:00:00;;;;;;;0.40;0.20;;;16.70;99.90;;;;;;5110645;27;20391;-72
2021/08/18 08:02:25;;;;;;;0.40;0.20;;;16.70;99.90;;;;;;5111143;27;20409;-71
2021/08/18 08:04:51;;;;;;;0.40;0.30;;;16.90;99.90;;;;;;5111407;27;20436;-71
2021/08/18 08:07:17;;;;;;;0.40;0.20;;;16.80;99.90;;;;;;5110360;27;20396;-72
2021/08/18 08:09:42;;;;;;;0.40;0.30;;;16.80;99.90;;;;;;5110392;27;20426;-72
2021/08/18 08:12:08;;;;;;;0.40;0.30;;;16.80;99.90;;;;;;5110013;27;20702;-70
2021/08/18 08:14:34;;;;;;;0.40;0.20;;;16.80;99.90;;;;;;5111443;27;20520;-71
2021/08/18 08:16:59;;;;;;;0.40;0.20;;;16.90;99.90;;;;;;5111412;27;20396;-71
2021/08/18 08:19:25;;;;;;;0.40;0.30;;;17.00;99.90;;;;;;5108570;27;20986;-71
2021/08/18 08:21:50;;;;;;;0.40;0.30;;;17.20;99.90;;;;;;5110914;27;20375;-71
2021/08/18 08:24:16;;;;;;;0.40;0.30;;;17.10;99.90;;;;;;5110613;27;20414;-71
2021/08/18 08:26:42;;;;;;;0.40;0.30;;;16.90;99.90;;;;;;5111828;27;20378;-70
2021/08/18 08:29:09;;;;;;;0.40;0.20;;;17.00;99.90;;;;;;5090290;27;20843;-73
2021/08/18 08:31:35;;;;;;;0.40;0.30;;;17.20;99.90;;;;;;5110441;27;20753;-70
2021/08/18 08:34:01;;;;;;;0.40;0.20;;;17.20;99.90;;;;;;5109968;27;20496;-73
2021/08/18 08:36:26;;;;;;;0.40;0.20;;;17.30;99.90;;;;;;5110154;27;20475;-71
2021/08/18 08:38:52;;;;;;;0.40;0.30;;;17.30;99.90;;;;;;5113409;28;20400;-70
2021/08/18 08:41:19;;;;;;;0.40;0.20;;;17.40;99.90;;;;;;5111837;28;20411;-71
2021/08/18 08:43:45;;;;;;;0.40;0.30;;;17.40;99.90;;;;;;5112560;28;20400;-71
2021/08/18 08:46:11;;;;;;;0.40;0.30;;;17.10;99.90;;;;;;5111235;28;20392;-72
2021/08/18 08:48:39;;;;;;;0.40;0.30;;;17.40;99.90;;;;;;5112600;28;20388;-70
2021/08/18 08:51:06;;;;;;;0.40;0.30;;;17.40;99.90;;;;;;5111863;28;20868;-71
2021/08/18 08:53:32;;;;;;;0.40;0.30;;;17.70;99.90;;;;;;5112339;28;20392;-71
2021/08/18 08:55:58;;;;;;;0.40;0.20;;;17.70;99.90;;;;;;5112341;28;20420;-70
2021/08/18 08:58:24;;;;;;;0.40;0.20;;;18.00;99.90;;;;;;5112379;28;20462;-70
2021/08/18 09:00:50;;;;;;;0.40;0.30;;;18.30;99.90;;;;;;5112405;28;20454;-69
2021/08/18 09:03:20;;;;;;;0.40;0.30;;;18.30;99.90;;;;;;5112318;28;20416;-71
2021/08/18 09:05:46;;;;;;;0.40;0.30;;;18.40;99.90;;;;;;5112951;28;20422;-71
2021/08/18 09:08:17;;;;;;;0.40;0.30;;;18.20;99.90;;;;;;5111702;28;20381;-70
2021/08/18 09:20:43;;;;;;;0.40;0.20;;;18.50;99.90;;;;;;5144433;22;20429;-76
2021/08/18 09:23:11;;;;;;;0.40;0.20;;;18.60;99.90;;;;;;5112317;28;20405;-76
2021/08/18 09:25:41;;;;;;;0.40;0.30;;;18.90;99.90;;;;;;5105753;28;20513;-77
2021/08/18 09:28:06;;;;;;;0.40;0.20;;;18.90;99.90;;;;;;5106482;28;20399;-77
2021/08/18 09:30:35;;;;;;;0.40;0.30;;;18.80;99.90;;;;;;5095691;28;20398;-77
2021/08/18 09:33:07;;;;;;;0.40;0.20;;;19.00;99.90;;;;;;5096861;28;20381;-83
2021/08/18 09:35:33;;;;;;;0.40;0.20;;;19.00;99.90;;;;;;5108053;28;20377;-80
2021/08/18 09:38:08;;;;;;;0.40;0.30;;;19.00;99.90;;;;;;5100261;28;20442;-80
2021/08/18 09:40:48;;;;;;;0.40;0.30;;;19.10;99.90;;;;;;5106226;28;20388;-78
2021/08/18 09:43:21;;;;;;;0.40;0.20;;;18.90;99.90;;;;;;5090534;28;20435;-80
2021/08/18 09:46:03;;;;;;;0.40;0.20;;;19.10;99.90;;;;;;5091450;28;20762;-81
2021/08/18 09:48:30;;;;;;;0.40;0.30;;;19.10;99.90;;;;;;5081302;28;20424;-80
2021/08/18 09:51:02;;;;;;;0.40;0.20;;;19.00;99.90;;;;;;5106113;28;20724;-80
2021/08/18 09:53:32;;;;;;;0.40;0.30;;;19.00;99.90;;;;;;5109312;28;20424;-80
2021/08/18 09:56:03;;;;;;;0.40;0.20;;;19.30;99.90;;;;;;5077792;28;20394;-80
2021/08/18 09:58:31;;;;;;;0.40;0.20;;;19.10;99.90;;;;;;5088211;28;20742;-80
2021/08/18 10:01:00;;;;;;;0.40;0.20;;;19.10;99.90;;;;;;5105754;28;20392;-81
2021/08/18 10:03:26;;;;;;;0.40;0.30;;;19.00;99.90;;;;;;5100569;28;20378;-81
2021/08/18 10:05:55;;;;;;;0.40;0.20;;;19.10;99.90;;;;;;5095897;28;20419;-80
2021/08/18 10:08:21;;;;;;;0.40;0.20;;;19.40;99.90;;;;;;5108910;28;20425;-82
2021/08/18 10:10:47;;;;;;;0.40;0.27;;;19.40;99.90;;;;;;5097815;28;20721;-79
2021/08/18 10:13:13;;;;;;;0.40;0.20;;;19.40;99.90;;;;;;5102939;28;20938;-78
2021/08/18 10:16:01;;;;;;;0.40;0.20;;;19.60;99.90;;;;;;5094202;28;20472;-82
2021/08/18 10:18:37;;;;;;;0.40;0.20;;;19.70;99.90;;;;;;5091170;28;20421;-81
2021/08/18 10:21:09;;;;;;;0.40;0.30;;;19.50;99.90;;;;;;5095526;28;20455;-78
2021/08/18 10:23:44;;;;;;;0.40;0.30;;;19.40;99.90;;;;;;5100732;28;20416;-81
2021/08/18 10:29:09;;;;;;;0.40;0.20;;;19.10;99.90;;;;;;5096860;28;20393;-80
2021/08/18 10:31:44;;;;;;;0.40;0.30;;;19.10;99.90;;;;;;5095629;28;20404;-78
2021/08/18 10:34:22;;;;;;;0.40;0.20;;;19.10;99.90;;;;;;5097039;28;20396;-82
2021/08/18 10:36:56;;;;;;;0.40;0.20;;;19.30;99.90;;;;;;5086525;28;20801;-80
2021/08/18 10:39:21;;;;;;;0.40;0.20;;;19.20;99.90;;;;;;5088623;28;20888;-78
2021/08/18 10:42:04;;;;;;;0.40;0.20;;;19.30;99.90;;;;;;5100861;28;20416;-79
2021/08/18 10:44:48;;;;;;;0.40;0.30;;;19.40;99.90;;;;;;5082218;28;20451;-78
2021/08/18 10:47:16;;;;;;;0.40;0.20;;;19.40;99.90;;;;;;5098604;28;20507;-79
2021/08/18 10:49:44;;;;;;;0.40;0.20;;;19.20;99.90;;;;;;5096965;28;20874;-79
2021/08/18 10:52:10;;;;;;;0.40;0.30;;;19.30;99.90;;;;;;5091388;28;20385;-81
2021/08/18 10:54:41;;;;;;;0.40;0.20;;;19.50;99.90;;;;;;5091843;28;20481;-78
2021/08/18 10:57:48;;;;;;;0.40;0.30;;;19.60;99.90;;;;;;5089781;28;20398;-79
2021/08/18 11:00:33;;;;;;;0.40;0.30;;;19.70;99.90;;;;;;5089510;28;20896;-79
2021/08/18 11:03:00;;;;;;;0.40;0.30;;;19.80;99.90;;;;;;5093868;28;20390;-80
2021/08/18 11:05:28;;;;;;;0.40;0.30;;;19.70;99.90;;;;;;5113829;28;20484;-79
2021/08/18 11:08:08;;;;;;;0.40;0.20;;;19.60;99.90;;;;;;5079346;28;20467;-83
2021/08/18 11:10:55;;;;;;;0.40;0.20;;;19.60;99.90;;;;;;5081448;28;20820;-81
2021/08/18 11:13:43;;;;;;;0.40;0.30;;;19.60;99.90;;;;;;5091143;28;20612;-79
2021/08/18 11:16:14;;;;;;;0.40;0.30;;;19.60;99.90;;;;;;5100102;28;20872;-79
2021/08/18 11:18:50;;;;;;;0.40;0.30;;;19.80;99.90;;;;;;5104472;28;20388;-80
2021/08/18 11:21:22;;;;;;;0.40;0.30;;;19.90;99.90;;;;;;5103468;28;20412;-79
2021/08/18 11:23:50;;;;;;;0.40;0.20;;;19.90;99.90;;;;;;5106369;28;20408;-79
2021/08/18 11:26:27;;;;;;;0.40;0.20;;;20.00;99.90;;;;;;5103272;28;21005;-83
2021/08/18 11:28:56;;;;;;;0.40;0.20;;;20.40;99.90;;;;;;5109743;28;20396;-82
2021/08/18 11:31:40;;;;;;;0.40;0.30;;;20.60;99.90;;;;;;5104639;28;20438;-80
2021/08/18 11:34:28;;;;;;;0.40;0.20;;;20.40;99.90;;;;;;5110367;28;20392;-80
2021/08/18 11:37:12;;;;;;;0.40;0.30;;;20.60;99.90;;;;;;5114219;28;20384;-79
2021/08/18 11:39:41;;;;;;;0.40;0.20;;;21.30;99.50;;;;;;5099409;28;20931;-78
2021/08/18 11:42:18;;;;;;;0.40;0.30;;;21.20;99.60;;;;;;5104394;28;20386;-80
2021/08/18 11:44:46;;;;;;;0.40;0.20;;;21.20;98.30;;;;;;5113570;28;20433;-77
2021/08/18 11:47:17;;;;;;;0.40;0.20;;;21.80;99.40;;;;;;5113010;28;20390;-76
2021/08/18 11:49:46;;;;;;;0.40;0.20;;;21.40;98.60;;;;;;5113967;28;20389;-79
2021/08/18 11:52:20;;;;;;;0.40;0.20;;;21.30;98.70;;;;;;5113505;28;20396;-78
2021/08/18 11:54:59;;;;;;;0.40;0.20;;;21.50;98.10;;;;;;5114025;28;20381;-79
2021/08/18 11:57:26;;;;;;;0.40;0.20;;;21.40;96.90;;;;;;5113228;28;20382;-80
2021/08/18 11:59:54;;;;;;;0.40;0.20;;;21.80;96.50;;;;;;5109391;28;20461;-78
2021/08/18 12:02:24;;;;;;;0.40;0.20;;;21.70;97.00;;;;;;5093197;28;20370;-79
2021/08/18 12:04:50;;;;;;;0.40;0.20;;;21.60;98.70;;;;;;5093402;28;20402;-82
2021/08/18 12:07:17;;;;;;;0.40;0.20;;;21.90;97.20;;;;;;5092465;28;20439;-78
2021/08/18 12:10:07;;;;;;;0.40;0.30;;;21.90;96.10;;;;;;5094142;28;20382;-77
2021/08/18 12:12:33;;;;;;;0.40;0.20;;;21.80;96.20;;;;;;5093333;28;20382;-80
2021/08/18 12:15:09;;;;;;;0.40;0.30;;;22.30;97.50;;;;;;5093066;28;20379;-82
2021/08/18 12:17:39;;;;;;;0.40;0.20;;;22.60;96.40;;;;;;5108332;28;20388;-80
2021/08/18 12:20:23;;;;;;;0.40;0.20;;;22.60;95.60;;;;;;5102457;28;20504;-83
2021/08/18 12:22:49;;;;;;;0.40;0.30;;;22.20;96.20;;;;;;5096802;28;20401;-81
2021/08/18 12:25:17;;;;;;;0.40;0.30;;;22.10;96.10;;;;;;5104290;28;20420;-81
2021/08/18 12:27:42;;;;;;;0.40;0.30;;;22.10;95.50;;;;;;5090492;28;20433;-81
2021/08/18 12:30:17;;;;;;;0.40;0.30;;;21.70;95.90;;;;;;5108841;28;20965;-81
2021/08/18 12:32:43;;;;;;;0.40;0.30;;;21.60;97.80;;;;;;5077231;28;20386;-80
2021/08/18 12:35:10;;;;;;;0.40;0.20;;;21.50;97.90;;;;;;5099100;28;20764;-81
2021/08/18 12:37:40;;;;;;;0.40;0.30;;;21.40;97.20;;;;;;5088553;28;20407;-81
2021/08/18 12:40:06;;;;;;;0.40;0.30;;;21.20;98.60;;;;;;5087166;28;20392;-80
2021/08/18 12:42:36;;;;;;;0.40;0.30;;;21.50;96.90;;;;;;5108711;28;20755;-82
2021/08/18 12:45:05;;;;;;;0.40;0.30;;;21.60;96.50;;;;;;5101393;28;20422;-79
2021/08/18 12:47:36;;;;;;;0.40;0.30;;;21.80;96.00;;;;;;5110121;28;20395;-79
2021/08/18 12:50:05;;;;;;;0.40;0.20;;;21.40;96.30;;;;;;5082182;28;20951;-81
2021/08/18 12:52:31;;;;;;;0.40;0.30;;;21.80;96.80;;;;;;5111974;28;20472;-82
2021/08/18 12:54:59;;;;;;;0.40;0.20;;;21.60;96.40;;;;;;5107586;28;20433;-79
2021/08/18 12:57:24;;;;;;;0.40;0.30;;;21.70;96.70;;;;;;5094955;28;20419;-79
2021/08/18 12:59:50;;;;;;;0.40;0.20;;;21.40;97.00;;;;;;5112826;28;20465;-80
2021/08/18 13:02:15;;;;;;;0.40;0.30;;;21.50;96.80;;;;;;5112222;28;20381;-81
2021/08/18 13:04:41;;;;;;;0.40;0.30;;;21.60;96.60;;;;;;5099839;28;20432;-79